Time;durP1;ratioP1;P1;durP2;ratioP2;P2;SDS_P1;SDS_P2;PMS_P1;PMS_P2;Temp;Humidity;BMP_temperature;BMP_pressure;BME280_temperature;BME280_humidity;BME280_pressure;Samples;Min_cycle;Max_cycle;Signal;HPM_P1;HPM_P2
2022/05/02 00:02:05;0.00;0.00;0.62;0.00;0.00;0.62;1.20;0.70;;;26.70;22.40;;;;;;2243257;61;20431;-55
2022/05/02 00:04:50;0.00;0.00;0.62;0.00;0.00;0.62;3.70;1.30;;;26.70;22.40;;;;;;2244090;61;20855;-55
2022/05/02 00:07:37;0.00;0.00;0.62;0.00;0.00;0.62;1.53;1.00;;;26.70;22.40;;;;;;2244171;61;20535;-59
2022/05/02 00:10:22;0.00;0.00;0.62;0.00;0.00;0.62;1.50;0.90;;;26.70;22.40;;;;;;2243588;61;20373;-58
2022/05/02 00:13:09;0.00;0.00;0.62;0.00;0.00;0.62;1.60;1.00;;;26.70;22.40;;;;;;2243593;61;20807;-56
2022/05/02 00:15:54;0.00;0.00;0.62;0.00;0.00;0.62;1.40;0.70;;;26.70;22.40;;;;;;2244416;61;20516;-57
2022/05/02 00:18:38;0.00;0.00;0.62;0.00;0.00;0.62;1.30;0.80;;;26.70;22.40;;;;;;2244220;61;20439;-58
2022/05/02 00:21:23;0.00;0.00;0.62;0.00;0.00;0.62;1.47;1.00;;;26.70;22.40;;;;;;2243444;61;20455;-56
2022/05/02 00:24:09;0.00;0.00;0.62;0.00;0.00;0.62;3.77;1.23;;;26.70;22.40;;;;;;2243945;61;20412;-57
2022/05/02 00:26:56;0.00;0.00;0.62;0.00;0.00;0.62;1.40;0.83;;;26.70;22.40;;;;;;2244094;61;20839;-58
2022/05/02 00:29:41;0.00;0.00;0.62;0.00;0.00;0.62;1.40;1.00;;;26.70;22.40;;;;;;2243898;61;20399;-55
2022/05/02 00:32:26;0.00;0.00;0.62;0.00;0.00;0.62;1.60;1.00;;;26.70;22.40;;;;;;2243291;61;20796;-58
2022/05/02 00:35:11;0.00;0.00;0.62;0.00;0.00;0.62;1.40;1.10;;;26.70;22.40;;;;;;2243747;61;20364;-53
2022/05/02 00:37:56;0.00;0.00;0.62;0.00;0.00;0.62;2.17;1.37;;;26.70;22.40;;;;;;2244529;61;20381;-56
2022/05/02 00:40:42;0.00;0.00;0.62;0.00;0.00;0.62;1.70;1.20;;;26.70;22.30;;;;;;2243168;61;20920;-56
2022/05/02 00:43:26;0.00;0.00;0.62;0.00;0.00;0.62;1.80;1.40;;;26.70;22.50;;;;;;2243792;61;20408;-54
2022/05/02 00:46:18;0.00;0.00;0.62;0.00;0.00;0.62;2.30;1.93;;;26.70;22.10;;;;;;2243417;61;20377;-56
2022/05/02 00:49:03;0.00;0.00;0.62;0.00;0.00;0.62;1.97;1.53;;;26.70;22.00;;;;;;2244117;61;20372;-58
2022/05/02 00:51:47;0.00;0.00;0.62;0.00;0.00;0.62;2.13;1.93;;;26.70;22.00;;;;;;2243463;61;20881;-58
2022/05/02 00:54:32;0.00;0.00;0.62;0.00;0.00;0.62;2.00;1.80;;;26.70;21.90;;;;;;2243770;61;20986;-58
2022/05/02 00:57:18;0.00;0.00;0.62;0.00;0.00;0.62;2.03;1.67;;;26.70;21.90;;;;;;2243962;61;20420;-50
2022/05/02 01:00:05;0.00;0.00;0.62;0.00;0.00;0.62;2.47;2.00;;;26.60;21.80;;;;;;2244882;61;20936;-53
2022/05/02 01:02:49;0.00;0.00;0.62;0.00;0.00;0.62;1.70;1.50;;;26.60;21.80;;;;;;2244506;61;20799;-56
2022/05/02 01:07:08;0.00;0.00;0.62;0.00;0.00;0.62;3.07;2.13;;;26.60;21.70;;;;;;2244530;61;20569;-53
2022/05/02 01:08:42;0.00;0.00;0.62;0.00;0.00;0.62;2.30;1.70;;;26.60;21.80;;;;;;2244401;61;20829;-54
2022/05/02 01:11:26;0.00;0.00;0.62;0.00;0.00;0.62;2.60;2.00;;;26.60;21.70;;;;;;2244418;61;20455;-59
2022/05/02 01:14:12;0.00;0.00;0.62;0.00;0.00;0.62;2.63;2.30;;;26.60;21.70;;;;;;2244254;61;20352;-53
2022/05/02 01:16:57;0.00;0.00;0.62;0.00;0.00;0.62;2.60;2.37;;;26.60;22.30;;;;;;2244756;61;20372;-56
2022/05/02 01:19:42;0.00;0.00;0.62;0.00;0.00;0.62;3.27;2.47;;;26.50;21.60;;;;;;2244315;61;20435;-58
2022/05/02 01:22:28;0.00;0.00;0.62;0.00;0.00;0.62;2.73;2.00;;;26.50;21.60;;;;;;2244715;61;20434;-56
2022/05/02 01:25:12;0.00;0.00;0.62;0.00;0.00;0.62;3.37;2.37;;;26.50;21.60;;;;;;2248801;61;20367;-55
2022/05/02 01:27:57;0.00;0.00;0.62;0.00;0.00;0.62;2.10;1.90;;;26.50;21.70;;;;;;2248253;61;20547;-55
2022/05/02 01:30:41;0.00;0.00;0.62;0.00;0.00;0.62;2.87;2.17;;;26.50;21.70;;;;;;2247804;61;20418;-58
2022/05/02 01:33:26;0.00;0.00;0.62;0.00;0.00;0.62;2.80;2.00;;;26.40;21.60;;;;;;2248766;61;20544;-50
2022/05/02 01:36:10;0.00;0.00;0.62;0.00;0.00;0.62;4.50;2.60;;;26.40;21.60;;;;;;2248389;61;20363;-50
2022/05/02 01:38:57;0.00;0.00;0.62;0.00;0.00;0.62;2.80;2.20;;;26.40;21.60;;;;;;2248565;61;20387;-54
2022/05/02 01:41:41;0.00;0.00;0.62;0.00;0.00;0.62;2.60;2.37;;;26.40;21.60;;;;;;2248040;61;20387;-55
2022/05/02 01:44:26;0.00;0.00;0.62;0.00;0.00;0.62;2.97;2.60;;;26.30;21.60;;;;;;2248837;61;20409;-53
2022/05/02 01:47:11;0.00;0.00;0.62;0.00;0.00;0.62;2.67;2.30;;;26.30;21.50;;;;;;2248451;61;21008;-57
2022/05/02 01:49:55;0.00;0.00;0.62;0.00;0.00;0.62;2.57;2.37;;;26.30;21.50;;;;;;2248134;61;20359;-54
2022/05/02 01:52:40;0.00;0.00;0.62;0.00;0.00;0.62;2.90;2.50;;;26.30;21.50;;;;;;2247785;61;20548;-54
2022/05/02 01:55:26;0.00;0.00;0.62;0.00;0.00;0.62;3.53;2.37;;;26.30;21.50;;;;;;2248924;61;20399;-56
2022/05/02 01:58:10;0.00;0.00;0.62;0.00;0.00;0.62;2.80;2.40;;;26.20;21.50;;;;;;2248373;61;20454;-56
2022/05/02 02:00:55;0.00;0.00;0.62;0.00;0.00;0.62;2.60;2.40;;;26.20;21.50;;;;;;2247416;61;20376;-57
2022/05/02 02:03:40;0.00;0.00;0.62;0.00;0.00;0.62;2.50;2.10;;;26.20;21.40;;;;;;2248706;61;20383;-53
2022/05/02 02:06:26;0.00;0.00;0.62;0.00;0.00;0.62;2.70;2.50;;;26.20;21.50;;;;;;2248564;61;20375;-56
2022/05/02 02:09:10;0.00;0.00;0.62;0.00;0.00;0.62;2.90;2.70;;;26.10;21.40;;;;;;2248337;61;20388;-55
2022/05/02 02:11:57;0.00;0.00;0.62;0.00;0.00;0.62;2.20;2.00;;;26.10;21.50;;;;;;2247824;61;20383;-53
2022/05/02 02:14:42;0.00;0.00;0.62;0.00;0.00;0.62;2.93;2.23;;;26.10;21.50;;;;;;2248114;61;20787;-62
2022/05/02 02:17:26;0.00;0.00;0.62;0.00;0.00;0.62;2.50;2.30;;;26.10;21.60;;;;;;2248797;61;20448;-57
2022/05/02 02:20:12;0.00;0.00;0.62;0.00;0.00;0.62;2.80;2.60;;;26.00;21.50;;;;;;2248014;61;20396;-55
2022/05/02 02:22:57;0.00;0.00;0.62;0.00;0.00;0.62;3.10;2.80;;;26.00;21.50;;;;;;2248090;61;20471;-54
2022/05/02 02:25:44;0.00;0.00;0.62;0.00;0.00;0.62;2.90;2.60;;;26.00;21.60;;;;;;2248482;61;20356;-55
2022/05/02 02:28:30;0.00;0.00;0.62;0.00;0.00;0.62;2.73;2.13;;;26.00;21.60;;;;;;2248498;61;20431;-57
2022/05/02 02:31:14;0.00;0.00;0.62;0.00;0.00;0.62;3.43;2.60;;;25.90;21.50;;;;;;2247501;61;21474;-54
2022/05/02 02:33:59;0.00;0.00;0.62;0.00;0.00;0.62;2.30;2.10;;;25.90;21.50;;;;;;2248113;61;20367;-56
2022/05/02 02:36:43;0.00;0.00;0.62;0.00;0.00;0.62;2.37;2.00;;;25.90;21.50;;;;;;2248420;61;20367;-56
2022/05/02 02:39:28;0.00;0.00;0.62;0.00;0.00;0.62;2.70;2.23;;;25.90;21.60;;;;;;2248477;61;20476;-55
2022/05/02 02:42:12;0.00;0.00;0.62;0.00;0.00;0.62;2.97;2.60;;;25.80;21.50;;;;;;2247612;61;20508;-61
2022/05/02 02:44:58;0.00;0.00;0.62;0.00;0.00;0.62;3.23;2.93;;;25.80;21.60;;;;;;2248126;61;20849;-56
2022/05/02 02:47:43;0.00;0.00;0.62;0.00;0.00;0.62;2.87;2.57;;;25.80;21.60;;;;;;2248023;61;20367;-59
2022/05/02 02:50:28;0.00;0.00;0.62;0.00;0.00;0.62;3.07;2.57;;;25.80;21.60;;;;;;2247702;61;20825;-54
2022/05/02 02:53:13;0.00;0.00;0.62;0.00;0.00;0.62;2.30;2.10;;;25.70;21.60;;;;;;2247764;61;20434;-53
2022/05/02 02:55:57;0.00;0.00;0.62;0.00;0.00;0.62;2.47;2.27;;;25.70;21.60;;;;;;2248007;61;20368;-56
2022/05/02 02:58:42;0.00;0.00;0.62;0.00;0.00;0.62;3.13;2.47;;;25.70;21.60;;;;;;2248706;61;20388;-51
2022/05/02 03:01:28;0.00;0.00;0.62;0.00;0.00;0.62;2.57;2.20;;;25.70;21.60;;;;;;2247933;61;20782;-53
2022/05/02 03:07:17;0.00;0.00;0.62;0.00;0.00;0.62;3.07;2.50;;;25.70;21.60;;;;;;2248016;61;20387;-55
2022/05/02 03:10:04;0.00;0.00;0.62;0.00;0.00;0.62;3.03;2.30;;;25.60;21.60;;;;;;2248195;61;20380;-53
2022/05/02 03:12:48;0.00;0.00;0.62;0.00;0.00;0.62;2.47;2.23;;;25.60;21.60;;;;;;2248123;61;20480;-55
2022/05/02 03:15:33;0.00;0.00;0.62;0.00;0.00;0.62;2.93;2.43;;;25.60;21.60;;;;;;2247873;61;20946;-55
2022/05/02 03:18:19;0.00;0.00;0.62;0.00;0.00;0.62;3.03;2.80;;;25.50;21.50;;;;;;2247835;61;20527;-54
2022/05/02 03:21:04;0.00;0.00;0.62;0.00;0.00;0.62;2.80;2.60;;;25.50;21.50;;;;;;2247536;61;20372;-56
2022/05/02 03:23:48;0.00;0.00;0.62;0.00;0.00;0.62;2.97;2.40;;;25.50;21.50;;;;;;2248595;61;20443;-53
2022/05/02 03:26:33;0.00;0.00;0.62;0.00;0.00;0.62;3.50;2.87;;;25.50;21.60;;;;;;2247857;61;20462;-53
2022/05/02 03:29:17;0.00;0.00;0.62;0.00;0.00;0.62;2.53;2.33;;;25.50;21.60;;;;;;2247694;61;20360;-53
2022/05/02 03:32:02;0.00;0.00;0.62;0.00;0.00;0.62;2.53;2.33;;;25.50;22.10;;;;;;2247237;61;20419;-53
2022/05/02 03:34:48;0.00;0.00;0.62;0.00;0.00;0.62;3.10;2.53;;;25.50;21.60;;;;;;2248200;61;20402;-53
2022/05/02 03:37:33;0.00;0.00;0.62;0.00;0.00;0.62;3.10;2.30;;;25.40;21.60;;;;;;2247871;61;20781;-55
2022/05/02 03:40:18;0.00;0.00;0.62;0.00;0.00;0.62;3.40;2.80;;;25.40;21.60;;;;;;2247746;61;20933;-56
2022/05/02 03:43:02;0.00;0.00;0.62;0.00;0.00;0.62;2.70;2.40;;;25.40;21.60;;;;;;2248275;61;20387;-56
2022/05/02 03:45:47;0.00;0.00;0.62;0.00;0.00;0.62;2.80;2.43;;;25.40;22.20;;;;;;2248103;61;20423;-56
2022/05/02 03:48:31;0.00;0.00;0.62;0.00;0.00;0.62;3.07;2.40;;;25.30;21.50;;;;;;2247684;61;20364;-56
2022/05/02 03:51:18;0.00;0.00;0.62;0.00;0.00;0.62;2.30;2.10;;;25.30;21.60;;;;;;2246925;61;20363;-56
2022/05/02 03:54:03;0.00;0.00;0.62;0.00;0.00;0.62;2.90;2.60;;;25.30;21.60;;;;;;2248038;61;20781;-52
2022/05/02 03:56:47;0.00;0.00;0.62;0.00;0.00;0.62;3.23;2.70;;;25.30;21.60;;;;;;2248063;61;20395;-53
2022/05/02 03:59:32;0.00;0.00;0.62;0.00;0.00;0.62;3.23;2.40;;;25.30;21.70;;;;;;2247777;61;20387;-54
2022/05/02 04:02:16;0.00;0.00;0.62;0.00;0.00;0.62;3.40;2.70;;;25.20;21.60;;;;;;2247630;61;20443;-56
2022/05/02 04:05:01;0.00;0.00;0.62;0.00;0.00;0.62;3.20;2.83;;;25.20;21.60;;;;;;2248095;61;20951;-52
2022/05/02 04:07:47;0.00;0.00;0.62;0.00;0.00;0.62;2.60;2.40;;;25.20;21.60;;;;;;2248019;61;20463;-55
2022/05/02 04:10:31;0.00;0.00;0.62;0.00;0.00;0.62;3.10;2.80;;;25.20;21.70;;;;;;2246685;61;20367;-56
2022/05/02 04:13:16;0.00;0.00;0.62;0.00;0.00;0.62;2.70;2.23;;;25.10;21.60;;;;;;2247880;61;20395;-54
2022/05/02 04:16:00;0.00;0.00;0.62;0.00;0.00;0.62;2.57;2.37;;;25.10;21.60;;;;;;2248422;61;20441;-60
2022/05/02 04:18:45;0.00;0.00;0.62;0.00;0.00;0.62;3.40;2.90;;;25.10;21.60;;;;;;2248111;61;20857;-54
2022/05/02 04:21:30;0.00;0.00;0.62;0.00;0.00;0.62;3.47;2.40;;;25.10;21.70;;;;;;2247265;61;20506;-58
2022/05/02 04:24:17;0.00;0.00;0.62;0.00;0.00;0.62;3.60;2.77;;;25.10;21.70;;;;;;2248052;61;20367;-54
2022/05/02 04:27:02;0.00;0.00;0.62;0.00;0.00;0.62;3.60;2.53;;;25.10;21.70;;;;;;2248145;61;20403;-56
2022/05/02 04:29:47;0.00;0.00;0.62;0.00;0.00;0.62;2.63;2.43;;;25.00;21.60;;;;;;2250001;61;20407;-56
2022/05/02 04:32:31;0.00;0.00;0.62;0.00;0.00;0.62;3.20;2.33;;;25.00;21.60;;;;;;2248217;61;20427;-56
2022/05/02 04:35:16;0.00;0.00;0.62;0.00;0.00;0.62;3.70;2.47;;;25.00;21.70;;;;;;2249293;61;20395;-57
2022/05/02 04:38:01;0.00;0.00;0.62;0.00;0.00;0.62;2.87;2.67;;;25.00;21.70;;;;;;2249413;61;20458;-55
2022/05/02 04:40:47;0.00;0.00;0.62;0.00;0.00;0.62;2.80;2.50;;;25.00;21.70;;;;;;2248688;61;20398;-53
2022/05/02 04:43:31;0.00;0.00;0.62;0.00;0.00;0.62;3.53;2.20;;;25.00;21.70;;;;;;2249347;61;20383;-52
2022/05/02 04:46:16;0.00;0.00;0.62;0.00;0.00;0.62;3.17;2.60;;;25.00;21.80;;;;;;2248782;61;20831;-52
2022/05/02 04:49:00;0.00;0.00;0.62;0.00;0.00;0.62;3.80;2.73;;;24.90;21.70;;;;;;2249190;61;20686;-60
2022/05/02 04:51:45;0.00;0.00;0.62;0.00;0.00;0.62;2.83;2.50;;;24.90;21.70;;;;;;2248611;61;20946;-55
2022/05/02 04:54:29;0.00;0.00;0.62;0.00;0.00;0.62;2.93;2.53;;;24.90;21.70;;;;;;2249083;61;20366;-56
2022/05/02 04:57:15;0.00;0.00;0.62;0.00;0.00;0.62;2.70;2.50;;;24.90;21.70;;;;;;2249634;61;20367;-54
2022/05/02 05:00:00;0.00;0.00;0.62;0.00;0.00;0.62;2.73;2.40;;;24.90;21.70;;;;;;2249410;61;20437;-51
2022/05/02 05:02:44;0.00;0.00;0.62;0.00;0.00;0.62;3.40;2.80;;;24.90;21.70;;;;;;2248967;61;20434;-54
2022/05/02 05:05:29;0.00;0.00;0.62;0.00;0.00;0.62;3.63;2.60;;;24.90;21.70;;;;;;2248843;61;20367;-54
2022/05/02 05:08:15;0.00;0.00;0.62;0.00;0.00;0.62;2.90;2.60;;;24.90;21.70;;;;;;2249434;61;20370;-52
2022/05/02 05:11:18;0.00;0.00;0.62;0.00;0.00;0.62;2.77;2.30;;;24.80;21.60;;;;;;2248934;61;20502;-53
2022/05/02 05:17:33;0.00;0.00;0.62;0.00;0.00;0.62;2.20;2.00;;;24.80;21.60;;;;;;2248897;61;20372;-57
2022/05/02 05:20:25;0.00;0.00;0.62;0.00;0.00;0.62;3.40;2.83;;;24.80;21.60;;;;;;2248701;61;20824;-52
2022/05/02 05:23:23;0.00;0.00;0.62;0.00;0.00;0.62;3.23;2.80;;;24.70;21.60;;;;;;2249560;61;20407;-54
2022/05/02 05:26:15;0.00;0.00;0.62;0.00;0.00;0.62;3.77;2.40;;;24.70;21.60;;;;;;2249320;61;20447;-58
2022/05/02 05:29:18;0.00;0.00;0.62;0.00;0.00;0.62;2.10;1.90;;;24.70;21.70;;;;;;2249064;61;20762;-52
2022/05/02 05:32:19;0.00;0.00;0.62;0.00;0.00;0.62;3.27;2.43;;;24.70;21.70;;;;;;2248526;61;20391;-67
2022/05/02 05:35:07;0.00;0.00;0.62;0.00;0.00;0.62;2.70;2.50;;;24.70;22.30;;;;;;2248727;61;20472;-67
2022/05/02 05:38:01;0.00;0.00;0.62;0.00;0.00;0.62;2.90;2.50;;;24.70;21.90;;;;;;2248670;61;20383;-57
2022/05/02 05:40:50;0.00;0.00;0.62;0.00;0.00;0.62;3.70;2.50;;;24.70;22.00;;;;;;2248769;61;20888;-57
2022/05/02 05:43:53;0.00;0.00;0.62;0.00;0.00;0.62;3.20;2.63;;;24.70;22.10;;;;;;2248441;61;20452;-58
2022/05/02 05:47:07;0.00;0.00;0.62;0.00;0.00;0.62;2.67;2.30;;;24.60;22.00;;;;;;2245872;61;20367;-66
2022/05/02 05:50:09;0.00;0.00;0.62;0.00;0.00;0.62;4.00;2.80;;;24.60;22.00;;;;;;2246996;61;20809;-55
2022/05/02 05:53:08;0.00;0.00;0.62;0.00;0.00;0.62;3.10;2.53;;;24.60;22.00;;;;;;2244625;61;21070;-56
2022/05/02 05:56:09;0.00;0.00;0.62;0.00;0.00;0.62;3.70;2.77;;;24.60;22.00;;;;;;2244034;61;20931;-60
2022/05/02 05:59:08;0.00;0.00;0.62;0.00;0.00;0.62;2.97;2.70;;;24.60;22.00;;;;;;2243805;61;20717;-59
2022/05/02 06:02:06;0.00;0.00;0.62;0.00;0.00;0.62;3.83;2.80;;;24.60;22.00;;;;;;2243866;61;20388;-56
2022/05/02 06:04:51;0.00;0.00;0.62;0.00;0.00;0.62;3.30;2.67;;;24.60;22.00;;;;;;2244054;61;20917;-57
2022/05/02 06:07:38;0.00;0.00;0.62;0.00;0.00;0.62;3.43;2.37;;;24.60;22.00;;;;;;2244169;61;20904;-67
2022/05/02 06:10:25;0.00;0.00;0.62;0.00;0.00;0.62;3.93;2.80;;;24.60;22.00;;;;;;2243641;61;20357;-66
2022/05/02 06:13:10;0.00;0.00;0.62;0.00;0.00;0.62;3.57;2.57;;;24.60;22.00;;;;;;2243951;61;20384;-61
2022/05/02 06:19:04;0.00;0.00;0.62;0.00;0.00;0.62;3.27;2.60;;;24.60;22.00;;;;;;2243958;61;20853;-65
2022/05/02 06:21:49;0.00;0.00;0.62;0.00;0.00;0.62;4.03;3.33;;;24.60;22.00;;;;;;2244090;61;20385;-65
2022/05/02 06:24:36;0.00;0.00;0.62;0.00;0.00;0.62;3.30;2.70;;;24.60;22.00;;;;;;2244231;61;20388;-65
2022/05/02 06:27:21;0.00;0.00;0.62;0.00;0.00;0.62;3.77;2.50;;;24.60;22.00;;;;;;2243533;61;20460;-64
2022/05/02 06:30:07;0.00;0.00;0.62;0.00;0.00;0.62;4.07;2.57;;;24.60;22.00;;;;;;2244198;61;20408;-64
2022/05/02 06:32:57;0.00;0.00;0.62;0.00;0.00;0.62;3.07;2.40;;;24.60;22.00;;;;;;2244023;61;20440;-65
2022/05/02 06:36:03;0.00;0.00;0.62;0.00;0.00;0.62;2.60;2.40;;;24.60;22.00;;;;;;2244045;61;20901;-65
2022/05/02 06:38:59;0.00;0.00;0.62;0.00;0.00;0.62;3.57;2.97;;;24.60;22.00;;;;;;2244283;61;20420;-66
2022/05/02 06:41:58;0.00;0.00;0.62;0.00;0.00;0.62;2.60;2.40;;;24.60;22.00;;;;;;2243613;61;20997;-62
2022/05/02 06:44:57;0.00;0.00;0.62;0.00;0.00;0.62;2.70;2.47;;;24.60;22.00;;;;;;2243853;61;20651;-64
2022/05/02 06:48:14;0.00;0.00;0.62;0.00;0.00;0.62;3.10;2.17;;;24.60;22.00;;;;;;2248649;61;20396;-64
2022/05/02 06:51:06;0.00;0.00;0.62;0.00;0.00;0.62;2.63;2.43;;;24.60;22.00;;;;;;2244031;61;20424;-69
2022/05/02 06:54:40;0.00;0.00;0.62;0.00;0.00;0.62;3.37;2.37;;;24.60;22.00;;;;;;2245006;61;20404;-64
2022/05/02 06:57:40;0.00;0.00;0.62;0.00;0.00;0.62;3.00;2.47;;;24.60;22.00;;;;;;2243194;61;20372;-55
2022/05/02 07:00:29;0.00;0.00;0.62;0.00;0.00;0.62;2.70;2.10;;;24.60;22.70;;;;;;2243831;61;20392;-62
2022/05/02 07:03:46;0.00;0.00;0.62;0.00;0.00;0.62;2.43;1.93;;;24.60;22.20;;;;;;2245802;61;20396;-66
2022/05/02 07:06:49;0.00;0.00;0.62;0.00;0.00;0.62;2.40;2.20;;;24.60;22.20;;;;;;2243542;61;20372;-66
2022/05/02 07:09:43;0.00;0.00;0.62;0.00;0.00;0.62;2.40;2.00;;;24.60;22.20;;;;;;2241863;61;20500;-67
2022/05/02 07:12:31;0.00;0.00;0.62;0.00;0.00;0.62;2.50;2.30;;;24.60;22.30;;;;;;2243139;61;20440;-64
2022/05/02 07:15:23;0.00;0.00;0.62;0.00;0.00;0.62;2.00;1.63;;;24.60;22.30;;;;;;2244184;61;20404;-67
2022/05/02 07:18:27;0.00;0.00;0.62;0.00;0.00;0.62;2.33;2.13;;;24.60;22.30;;;;;;2244178;61;20366;-60
2022/05/02 07:21:32;0.00;0.00;0.62;0.00;0.00;0.62;4.50;1.77;;;24.70;22.40;;;;;;2243928;61;20766;-56
2022/05/02 07:24:35;0.00;0.00;0.62;0.00;0.00;0.62;2.90;2.30;;;24.70;22.40;;;;;;2244216;61;20412;-56
2022/05/02 07:27:39;0.00;0.00;0.62;0.00;0.00;0.62;2.40;1.90;;;24.70;22.40;;;;;;2243701;61;20376;-58
2022/05/02 07:30:25;0.00;0.00;0.62;0.00;0.00;0.62;2.57;2.17;;;24.70;22.40;;;;;;2243854;61;20514;-54
2022/05/02 07:33:11;0.00;0.00;0.62;0.00;0.00;0.62;2.43;1.70;;;24.70;22.30;;;;;;2243192;61;20380;-55
2022/05/02 07:35:57;0.00;0.00;0.62;0.00;0.00;0.62;3.33;2.00;;;24.70;22.30;;;;;;2244187;61;20371;-57
2022/05/02 07:38:45;0.00;0.00;0.62;0.00;0.00;0.62;3.27;2.10;;;24.70;22.40;;;;;;2244029;61;20392;-55
2022/05/02 07:41:33;0.00;0.00;0.62;0.00;0.00;0.62;3.63;2.20;;;24.70;22.30;;;;;;2243082;61;20368;-56
2022/05/02 07:44:21;0.00;0.00;0.62;0.00;0.00;0.62;2.37;2.03;;;24.80;22.40;;;;;;2244088;61;20372;-56
2022/05/02 07:47:09;0.00;0.00;0.62;0.00;0.00;0.62;2.50;1.87;;;24.80;22.40;;;;;;2244133;61;20413;-57
2022/05/02 07:49:57;0.00;0.00;0.62;0.00;0.00;0.62;2.73;1.87;;;24.80;22.40;;;;;;2243414;61;20361;-53
2022/05/02 07:52:45;0.00;0.00;0.62;0.00;0.00;0.62;2.60;2.27;;;24.80;22.30;;;;;;2243720;61;20387;-59
2022/05/02 07:55:31;0.00;0.00;0.62;0.00;0.00;0.62;4.17;2.47;;;24.80;22.40;;;;;;2243909;61;20843;-55
2022/05/02 07:58:19;0.00;0.00;0.62;0.00;0.00;0.62;3.27;1.90;;;24.90;22.40;;;;;;2244182;61;20444;-53
2022/05/02 08:01:03;0.00;0.00;0.62;0.00;0.00;0.62;3.30;2.07;;;24.80;22.30;;;;;;2243695;61;20365;-56
2022/05/02 08:03:48;0.00;0.00;0.62;0.00;0.00;0.62;3.20;2.30;;;24.80;22.30;;;;;;2243901;61;20376;-57
2022/05/02 08:06:52;0.00;0.00;0.62;0.00;0.00;0.62;2.50;1.67;;;24.90;22.30;;;;;;2243770;61;20413;-57
2022/05/02 08:10:26;0.00;0.00;0.62;0.00;0.00;0.62;2.60;1.97;;;24.90;22.30;;;;;;2244105;61;20392;-57
2022/05/02 08:13:36;0.00;0.00;0.62;0.00;0.00;0.62;3.97;2.57;;;24.90;22.30;;;;;;2243918;61;20384;-55
2022/05/02 08:16:24;0.00;0.00;0.62;0.00;0.00;0.62;2.77;2.40;;;24.90;22.20;;;;;;2244270;61;20381;-55
2022/05/02 08:19:22;0.00;0.00;0.62;0.00;0.00;0.62;2.60;1.90;;;25.00;22.30;;;;;;2243184;61;20771;-56
2022/05/02 08:28:41;0.00;0.00;0.62;0.00;0.00;0.62;2.60;2.00;;;25.00;22.30;;;;;;2244040;61;20365;-61
2022/05/02 08:31:45;0.00;0.00;0.62;0.00;0.00;0.62;2.50;1.93;;;25.00;22.30;;;;;;2243648;61;20404;-54
2022/05/02 08:34:43;0.00;0.00;0.62;0.00;0.00;0.62;1.87;1.67;;;25.00;22.30;;;;;;2244144;61;20412;-55
2022/05/02 08:38:02;0.00;0.00;0.62;0.00;0.00;0.62;1.93;1.40;;;25.00;22.30;;;;;;2243946;61;20461;-58
2022/05/02 08:41:27;0.00;0.00;0.62;0.00;0.00;0.62;2.43;1.90;;;25.00;22.80;;;;;;2242664;61;20392;-56
2022/05/02 08:45:27;0.00;0.00;0.62;0.00;0.00;0.62;2.30;1.80;;;25.00;22.30;;;;;;2243913;61;20405;-54
2022/05/02 08:53:02;0.00;0.00;0.62;0.00;0.00;0.62;1.90;1.70;;;25.00;22.30;;;;;;2243337;61;20925;-54
2022/05/02 08:56:32;0.00;0.00;0.62;0.00;0.00;0.62;2.00;1.77;;;25.10;22.30;;;;;;2243708;61;20555;-58
2022/05/02 08:59:54;0.00;0.00;0.62;0.00;0.00;0.62;2.50;1.93;;;25.10;22.30;;;;;;2243829;61;20400;-64
2022/05/02 09:03:48;0.00;0.00;0.62;0.00;0.00;0.62;2.83;2.03;;;25.10;22.30;;;;;;2243000;61;20403;-67
2022/05/02 09:07:31;0.00;0.00;0.62;0.00;0.00;0.62;2.30;1.90;;;25.10;22.40;;;;;;2243858;61;20368;-65
2022/05/02 09:10:23;0.00;0.00;0.62;0.00;0.00;0.62;3.37;1.90;;;25.10;22.40;;;;;;2240946;61;20432;-64
2022/05/02 09:13:45;0.00;0.00;0.62;0.00;0.00;0.62;2.23;1.90;;;25.10;22.50;;;;;;2243437;61;20469;-68
2022/05/02 09:17:15;0.00;0.00;0.62;0.00;0.00;0.62;2.20;2.00;;;25.10;22.50;;;;;;2243452;61;20419;-67
2022/05/02 09:20:21;0.00;0.00;0.62;0.00;0.00;0.62;2.90;2.17;;;25.20;22.60;;;;;;2244467;61;20391;-66
2022/05/02 09:23:54;0.00;0.00;0.62;0.00;0.00;0.62;2.20;2.00;;;25.20;22.70;;;;;;2244567;61;20516;-68
2022/05/02 09:27:21;0.00;0.00;0.62;0.00;0.00;0.62;3.23;1.80;;;25.20;22.70;;;;;;2228895;61;20359;-65
2022/05/02 09:31:02;0.00;0.00;0.62;0.00;0.00;0.62;3.43;2.43;;;25.20;22.70;;;;;;2244779;61;21046;-65
2022/05/02 09:34:15;0.00;0.00;0.62;0.00;0.00;0.62;2.97;2.10;;;25.30;23.30;;;;;;2244754;61;20876;-64
2022/05/02 09:37:04;0.00;0.00;0.62;0.00;0.00;0.62;2.47;2.00;;;25.30;22.70;;;;;;2244796;61;20404;-64
2022/05/02 09:40:04;0.00;0.00;0.62;0.00;0.00;0.62;2.73;2.10;;;25.40;22.80;;;;;;2243865;61;20482;-63
2022/05/02 09:43:05;0.00;0.00;0.62;0.00;0.00;0.62;2.53;1.90;;;25.40;22.80;;;;;;2244741;61;20381;-59
2022/05/02 09:49:37;0.00;0.00;0.62;0.00;0.00;0.62;2.50;1.70;;;25.40;22.80;;;;;;2244566;61;20405;-60
2022/05/02 09:52:34;0.00;0.00;0.62;0.00;0.00;0.62;2.43;1.73;;;25.50;22.80;;;;;;2244165;61;20413;-61
2022/05/02 09:58:54;0.00;0.00;0.62;0.00;0.00;0.62;2.33;1.70;;;25.50;23.30;;;;;;2244188;61;20890;-67
2022/05/02 10:01:46;0.00;0.00;0.62;0.00;0.00;0.62;3.30;1.80;;;25.50;22.80;;;;;;2243802;61;20416;-67
2022/05/02 10:04:41;0.00;0.00;0.62;0.00;0.00;0.62;2.00;1.50;;;25.60;22.80;;;;;;2244640;61;20893;-64
2022/05/02 10:07:28;0.00;0.00;0.62;0.00;0.00;0.62;2.57;1.90;;;25.60;22.80;;;;;;2244374;61;20449;-65
2022/05/02 10:10:23;0.00;0.00;0.62;0.00;0.00;0.62;2.33;1.93;;;25.60;22.80;;;;;;2243881;61;20504;-67
2022/05/02 10:13:23;0.00;0.00;0.62;0.00;0.00;0.62;2.20;1.77;;;25.70;22.90;;;;;;2244835;61;20380;-59
2022/05/02 10:16:26;0.00;0.00;0.62;0.00;0.00;0.62;2.17;1.67;;;25.70;22.90;;;;;;2244095;61;20369;-64
2022/05/02 10:19:23;0.00;0.00;0.62;0.00;0.00;0.62;2.40;1.53;;;25.70;22.90;;;;;;2244987;61;20388;-65
2022/05/02 10:22:28;0.00;0.00;0.62;0.00;0.00;0.62;2.50;1.50;;;25.80;23.00;;;;;;2244160;61;20411;-64
2022/05/02 10:25:20;0.00;0.00;0.62;0.00;0.00;0.62;2.13;1.70;;;25.80;23.00;;;;;;2243669;61;20364;-65
2022/05/02 10:28:17;0.00;0.00;0.62;0.00;0.00;0.62;2.23;1.97;;;25.80;22.90;;;;;;2244456;61;20773;-64
2022/05/02 10:31:05;0.00;0.00;0.62;0.00;0.00;0.62;2.17;1.70;;;25.80;22.90;;;;;;2243532;61;20461;-68
2022/05/02 10:33:52;0.00;0.00;0.62;0.00;0.00;0.62;2.37;1.87;;;25.90;23.00;;;;;;2244330;61;20889;-64
2022/05/02 10:36:39;0.00;0.00;0.62;0.00;0.00;0.62;2.03;1.30;;;25.90;23.00;;;;;;2244334;61;20445;-67
2022/05/02 10:39:50;0.00;0.00;0.62;0.00;0.00;0.62;2.23;1.63;;;25.90;23.00;;;;;;2244047;61;20408;-68
2022/05/02 10:42:45;0.00;0.00;0.62;0.00;0.00;0.62;1.90;1.30;;;26.00;23.00;;;;;;2244019;61;20384;-64
2022/05/02 10:45:33;0.00;0.00;0.62;0.00;0.00;0.62;1.77;1.20;;;26.00;23.00;;;;;;2244018;61;20420;-67
2022/05/02 10:48:31;0.00;0.00;0.62;0.00;0.00;0.62;2.33;1.57;;;26.00;23.00;;;;;;2244441;61;20477;-59
2022/05/02 10:51:25;0.00;0.00;0.62;0.00;0.00;0.62;2.47;1.80;;;26.10;23.60;;;;;;2243843;61;20361;-61
2022/05/02 10:54:27;0.00;0.00;0.62;0.00;0.00;0.62;2.13;1.70;;;26.10;23.50;;;;;;2244353;61;20364;-66
2022/05/02 10:57:30;0.00;0.00;0.62;0.00;0.00;0.62;1.97;1.53;;;26.20;23.00;;;;;;2244321;61;20364;-67
2022/05/02 11:00:17;0.00;0.00;0.62;0.00;0.00;0.62;2.33;1.70;;;26.20;23.00;;;;;;2243570;61;20925;-65
2022/05/02 11:03:24;0.00;0.00;0.62;0.00;0.00;0.62;2.07;1.53;;;26.20;23.00;;;;;;2244028;61;20381;-64
2022/05/02 11:06:24;0.00;0.00;0.62;0.00;0.00;0.62;2.00;1.67;;;26.20;23.00;;;;;;2244102;61;20772;-67
2022/05/02 11:09:18;0.00;0.00;0.62;0.00;0.00;0.62;2.23;1.60;;;26.30;23.10;;;;;;2243815;61;20391;-60
2022/05/02 11:12:08;0.00;0.00;0.62;0.00;0.00;0.62;1.90;1.50;;;26.30;23.00;;;;;;2243551;61;20388;-58
2022/05/02 11:14:58;0.00;0.00;0.62;0.00;0.00;0.62;2.10;1.40;;;26.30;23.00;;;;;;2243830;61;20360;-67
2022/05/02 11:18:04;0.00;0.00;0.62;0.00;0.00;0.62;1.90;1.20;;;26.40;23.00;;;;;;2244099;61;20408;-63
2022/05/02 11:20:55;0.00;0.00;0.62;0.00;0.00;0.62;1.60;1.17;;;26.40;23.00;;;;;;2243851;61;20462;-66
2022/05/02 11:24:10;0.00;0.00;0.62;0.00;0.00;0.62;2.20;1.60;;;26.50;23.00;;;;;;2243918;61;20385;-60
2022/05/02 11:27:04;0.00;0.00;0.62;0.00;0.00;0.62;1.57;1.10;;;26.50;23.00;;;;;;2244026;61;20796;-59
2022/05/02 11:30:03;0.00;0.00;0.62;0.00;0.00;0.62;1.60;1.30;;;26.60;23.10;;;;;;2243848;61;20365;-64
2022/05/02 11:33:06;0.00;0.00;0.62;0.00;0.00;0.62;2.20;1.60;;;26.60;23.10;;;;;;2244074;61;20384;-68
2022/05/02 11:36:00;0.00;0.00;0.62;0.00;0.00;0.62;2.47;1.40;;;26.60;23.10;;;;;;2244233;61;20367;-67
2022/05/02 11:38:54;0.00;0.00;0.62;0.00;0.00;0.62;1.70;1.23;;;26.60;23.10;;;;;;2243722;61;20368;-60
2022/05/02 11:41:44;0.00;0.00;0.62;0.00;0.00;0.62;1.80;1.43;;;26.70;23.20;;;;;;2243230;61;20443;-67
2022/05/02 11:44:34;0.00;0.00;0.62;0.00;0.00;0.62;2.03;1.40;;;26.70;23.20;;;;;;2243590;61;20497;-58
2022/05/02 11:47:36;0.00;0.00;0.62;0.00;0.00;0.62;1.70;1.20;;;26.80;23.20;;;;;;2244056;61;20489;-59
2022/05/02 11:50:24;0.00;0.00;0.62;0.00;0.00;0.62;1.43;1.00;;;26.80;23.20;;;;;;2243756;61;20400;-64